sensor_id;sensor_type;location;lat;lon;timestamp;pressure;altitude;pressure_sealevel;temperature;humidity
62791;BME280;48830;53.426;10.300;2023-08-12T00:01:48;101695.72;;;24.65;85.94
62791;BME280;48830;53.426;10.300;2023-08-12T00:04:14;101688.69;;;24.65;85.55
62791;BME280;48830;53.426;10.300;2023-08-12T00:06:41;101689.56;;;24.64;85.92
62791;BME280;48830;53.426;10.300;2023-08-12T00:09:07;101683.47;;;24.64;85.45
62791;BME280;48830;53.426;10.300;2023-08-12T00:11:35;101681.69;;;24.64;85.51
62791;BME280;48830;53.426;10.300;2023-08-12T00:14:00;101680.81;;;24.64;86.08
62791;BME280;48830;53.426;10.300;2023-08-12T00:16:25;101684.31;;;24.64;86.12
62791;BME280;48830;53.426;10.300;2023-08-12T00:18:51;101688.72;;;24.64;86.06
62791;BME280;48830;53.426;10.300;2023-08-12T00:21:16;101682.59;;;24.63;85.39
62791;BME280;48830;53.426;10.300;2023-08-12T00:23:42;101666.94;;;24.60;85.92
62791;BME280;48830;53.426;10.300;2023-08-12T00:26:09;101675.63;;;24.62;85.90
62791;BME280;48830;53.426;10.300;2023-08-12T00:28:35;101663.38;;;24.61;86.39
62791;BME280;48830;53.426;10.300;2023-08-12T00:31:01;101668.66;;;24.61;85.60
62791;BME280;48830;53.426;10.300;2023-08-12T00:33:28;101663.38;;;24.61;86.10
62791;BME280;48830;53.426;10.300;2023-08-12T00:35:53;101668.59;;;24.63;85.60
62791;BME280;48830;53.426;10.300;2023-08-12T00:38:19;101668.66;;;24.61;85.53
62791;BME280;48830;53.426;10.300;2023-08-12T00:40:44;101668.66;;;24.61;85.88
62791;BME280;48830;53.426;10.300;2023-08-12T00:43:10;101662.53;;;24.60;85.89
62791;BME280;48830;53.426;10.300;2023-08-12T00:45:35;101666.03;;;24.61;85.92
62791;BME280;48830;53.426;10.300;2023-08-12T00:48:02;101661.66;;;24.60;85.83
62791;BME280;48830;53.426;10.300;2023-08-12T00:50:28;101663.38;;;24.61;85.81
62791;BME280;48830;53.426;10.300;2023-08-12T00:52:55;101659.84;;;24.62;85.54
62791;BME280;48830;53.426;10.300;2023-08-12T00:55:22;101659.84;;;24.62;86.16
62791;BME280;48830;53.426;10.300;2023-08-12T00:57:47;101666.06;;;24.59;86.17
62791;BME280;48830;53.426;10.300;2023-08-12T01:00:14;101651.19;;;24.58;85.67
62791;BME280;48830;53.426;10.300;2023-08-12T01:02:42;101652.00;;;24.60;85.65
62791;BME280;48830;53.426;10.300;2023-08-12T01:05:10;101653.81;;;24.58;85.66
62791;BME280;48830;53.426;10.300;2023-08-12T01:07:36;101649.41;;;24.59;86.11
62791;BME280;48830;53.426;10.300;2023-08-12T01:10:02;101650.31;;;24.58;86.34
62791;BME280;48830;53.426;10.300;2023-08-12T01:12:37;101647.69;;;24.58;85.79
62791;BME280;48830;53.426;10.300;2023-08-12T01:15:10;101651.22;;;24.57;86.12
62791;BME280;48830;53.426;10.300;2023-08-12T01:17:41;101643.34;;;24.57;86.45
62791;BME280;48830;53.426;10.300;2023-08-12T01:20:08;101641.63;;;24.56;86.22
62791;BME280;48830;53.426;10.300;2023-08-12T01:22:38;101638.09;;;24.57;86.06
62791;BME280;48830;53.426;10.300;2023-08-12T01:25:07;101636.31;;;24.57;85.76
62791;BME280;48830;53.426;10.300;2023-08-12T01:27:35;101639.84;;;24.56;85.76
62791;BME280;48830;53.426;10.300;2023-08-12T01:30:02;101645.97;;;24.57;86.33
62791;BME280;48830;53.426;10.300;2023-08-12T01:32:52;101646.88;;;24.56;86.15
62791;BME280;48830;53.426;10.300;2023-08-12T01:35:33;101639.06;;;24.53;85.51
62791;BME280;48830;53.426;10.300;2023-08-12T01:38:02;101634.59;;;24.56;85.49
62791;BME280;48830;53.426;10.300;2023-08-12T01:40:29;101643.41;;;24.55;85.79
62791;BME280;48830;53.426;10.300;2023-08-12T01:42:57;101631.19;;;24.53;85.51
62791;BME280;48830;53.426;10.300;2023-08-12T01:45:23;101624.16;;;24.53;85.55
62791;BME280;48830;53.426;10.300;2023-08-12T01:47:48;101616.28;;;24.53;85.64
62791;BME280;48830;53.426;10.300;2023-08-12T01:50:16;101612.78;;;24.53;85.81
62791;BME280;48830;53.426;10.300;2023-08-12T01:52:42;101611.94;;;24.52;85.82
62791;BME280;48830;53.426;10.300;2023-08-12T01:55:08;101611.06;;;24.52;85.69
62791;BME280;48830;53.426;10.300;2023-08-12T01:57:34;101618.09;;;24.51;85.76
62791;BME280;48830;53.426;10.300;2023-08-12T02:00:01;101620.69;;;24.53;85.80
62791;BME280;48830;53.426;10.300;2023-08-12T02:02:27;101605.81;;;24.52;86.16
62791;BME280;48830;53.426;10.300;2023-08-12T02:04:52;101612.78;;;24.53;86.38
62791;BME280;48830;53.426;10.300;2023-08-12T02:07:18;101610.16;;;24.53;85.89
62791;BME280;48830;53.426;10.300;2023-08-12T02:09:43;101601.41;;;24.52;85.93
62791;BME280;48830;53.426;10.300;2023-08-12T02:12:09;101599.69;;;24.51;86.34
62791;BME280;48830;53.426;10.300;2023-08-12T02:14:34;101590.03;;;24.52;86.15
62791;BME280;48830;53.426;10.300;2023-08-12T02:17:02;101591.88;;;24.50;85.93
62791;BME280;48830;53.426;10.300;2023-08-12T02:19:31;101595.34;;;24.50;86.16
62791;BME280;48830;53.426;10.300;2023-08-12T02:21:57;101588.38;;;24.49;86.58
62791;BME280;48830;53.426;10.300;2023-08-12T02:24:24;101584.91;;;24.49;85.91
62791;BME280;48830;53.426;10.300;2023-08-12T02:26:50;101585.75;;;24.49;85.94
62791;BME280;48830;53.426;10.300;2023-08-12T02:29:15;101584.91;;;24.47;86.38
62791;BME280;48830;53.426;10.300;2023-08-12T02:31:41;101581.38;;;24.48;85.93
62791;BME280;48830;53.426;10.300;2023-08-12T02:34:06;101584.00;;;24.48;86.10
62791;BME280;48830;53.426;10.300;2023-08-12T02:36:32;101583.16;;;24.48;86.28
62791;BME280;48830;53.426;10.300;2023-08-12T02:38:57;101583.16;;;24.48;86.39
62791;BME280;48830;53.426;10.300;2023-08-12T02:41:23;101571.78;;;24.47;86.13
62791;BME280;48830;53.426;10.300;2023-08-12T02:43:48;101574.47;;;24.46;86.75
62791;BME280;48830;53.426;10.300;2023-08-12T02:46:14;101568.34;;;24.45;86.65
62791;BME280;48830;53.426;10.300;2023-08-12T02:48:43;101572.75;;;24.45;86.53
62791;BME280;48830;53.426;10.300;2023-08-12T02:51:09;101563.94;;;24.46;86.36
62791;BME280;48830;53.426;10.300;2023-08-12T02:53:35;101556.97;;;24.45;86.61
62791;BME280;48830;53.426;10.300;2023-08-12T02:56:00;101550.88;;;24.43;86.72
62791;BME280;48830;53.426;10.300;2023-08-12T02:58:26;101556.16;;;24.43;86.43
62791;BME280;48830;53.426;10.300;2023-08-12T03:00:51;101553.50;;;24.43;86.12
62791;BME280;48830;53.426;10.300;2023-08-12T03:03:17;101562.31;;;24.42;86.50
62791;BME280;48830;53.426;10.300;2023-08-12T03:05:46;101565.78;;;24.44;86.46
62791;BME280;48830;53.426;10.300;2023-08-12T03:08:12;101566.66;;;24.43;86.21
62791;BME280;48830;53.426;10.300;2023-08-12T03:10:38;101560.53;;;24.44;86.57
62791;BME280;48830;53.426;10.300;2023-08-12T03:13:04;101548.19;;;24.46;86.26
62791;BME280;48830;53.426;10.300;2023-08-12T03:15:29;101556.97;;;24.45;85.77
62791;BME280;48830;53.426;10.300;2023-08-12T03:17:56;101557.84;;;24.45;85.79
62791;BME280;48830;53.426;10.300;2023-08-12T03:20:22;101550.81;;;24.46;86.14
62791;BME280;48830;53.426;10.300;2023-08-12T03:22:49;101552.59;;;24.45;86.13
62791;BME280;48830;53.426;10.300;2023-08-12T03:25:14;101559.47;;;24.49;85.62
62791;BME280;48830;53.426;10.300;2023-08-12T03:27:44;101551.72;;;24.45;86.05
62791;BME280;48830;53.426;10.300;2023-08-12T03:30:10;101558.69;;;24.46;85.73
62791;BME280;48830;53.426;10.300;2023-08-12T03:32:36;101567.38;;;24.48;85.75
62791;BME280;48830;53.426;10.300;2023-08-12T03:35:01;101555.28;;;24.42;85.92
62791;BME280;48830;53.426;10.300;2023-08-12T03:37:26;101566.56;;;24.46;85.62
62791;BME280;48830;53.426;10.300;2023-08-12T03:39:54;101563.09;;;24.45;85.58
62791;BME280;48830;53.426;10.300;2023-08-12T03:42:20;101550.88;;;24.43;85.93
62791;BME280;48830;53.426;10.300;2023-08-12T03:44:46;101539.50;;;24.44;86.13
62791;BME280;48830;53.426;10.300;2023-08-12T03:47:11;101542.94;;;24.46;85.86
62791;BME280;48830;53.426;10.300;2023-08-12T03:49:37;101537.66;;;24.46;86.05
62791;BME280;48830;53.426;10.300;2023-08-12T03:52:03;101549.03;;;24.46;85.79
62791;BME280;48830;53.426;10.300;2023-08-12T03:54:30;101547.38;;;24.44;86.16
62791;BME280;48830;53.426;10.300;2023-08-12T03:56:55;101551.72;;;24.45;86.35
62791;BME280;48830;53.426;10.300;2023-08-12T03:59:22;101542.13;;;24.44;85.67
62791;BME280;48830;53.426;10.300;2023-08-12T04:01:47;101544.78;;;24.42;86.01
62791;BME280;48830;53.426;10.300;2023-08-12T04:04:13;101533.38;;;24.43;86.93
62791;BME280;48830;53.426;10.300;2023-08-12T04:06:38;101521.97;;;24.43;86.66
62791;BME280;48830;53.426;10.300;2023-08-12T04:09:04;101524.59;;;24.43;85.91
62791;BME280;48830;53.426;10.300;2023-08-12T04:11:30;101528.13;;;24.43;86.18
62791;BME280;48830;53.426;10.300;2023-08-12T04:13:55;101522.88;;;24.43;86.23
62791;BME280;48830;53.426;10.300;2023-08-12T04:16:21;101523.72;;;24.44;86.60
62791;BME280;48830;53.426;10.300;2023-08-12T04:18:47;101526.44;;;24.41;86.47
62791;BME280;48830;53.426;10.300;2023-08-12T04:21:14;101541.28;;;24.42;86.32
62791;BME280;48830;53.426;10.300;2023-08-12T04:23:39;101543.13;;;24.40;86.05
62791;BME280;48830;53.426;10.300;2023-08-12T04:26:05;101551.81;;;24.42;86.31
62791;BME280;48830;53.426;10.300;2023-08-12T04:28:30;101546.53;;;24.43;86.62
62791;BME280;48830;53.426;10.300;2023-08-12T04:30:57;101546.53;;;24.42;86.14
62791;BME280;48830;53.426;10.300;2023-08-12T04:33:24;101549.16;;;24.42;86.53
62791;BME280;48830;53.426;10.300;2023-08-12T04:35:52;101552.78;;;24.39;86.74
62791;BME280;48830;53.426;10.300;2023-08-12T04:38:18;101554.56;;;24.37;86.59
62791;BME280;48830;53.426;10.300;2023-08-12T04:40:45;101551.81;;;24.42;86.52
62791;BME280;48830;53.426;10.300;2023-08-12T04:43:11;101556.25;;;24.40;86.48
62791;BME280;48830;53.426;10.300;2023-08-12T04:45:38;101556.25;;;24.40;86.64
62791;BME280;48830;53.426;10.300;2023-08-12T04:48:05;101553.63;;;24.40;86.13
62791;BME280;48830;53.426;10.300;2023-08-12T04:50:32;101541.41;;;24.37;86.51
62791;BME280;48830;53.426;10.300;2023-08-12T04:53:00;101538.78;;;24.39;86.57
62791;BME280;48830;53.426;10.300;2023-08-12T04:55:27;101537.00;;;24.39;86.19
62791;BME280;48830;53.426;10.300;2023-08-12T04:57:53;101539.63;;;24.39;86.13
62791;BME280;48830;53.426;10.300;2023-08-12T05:00:19;101523.88;;;24.38;86.34
62791;BME280;48830;53.426;10.300;2023-08-12T05:02:45;101520.38;;;24.39;85.98
62791;BME280;48830;53.426;10.300;2023-08-12T05:05:11;101536.16;;;24.39;86.08
62791;BME280;48830;53.426;10.300;2023-08-12T05:07:37;101536.16;;;24.37;86.37
62791;BME280;48830;53.426;10.300;2023-08-12T05:10:03;101519.53;;;24.38;86.37
62791;BME280;48830;53.426;10.300;2023-08-12T05:12:30;101521.25;;;24.38;86.73
62791;BME280;48830;53.426;10.300;2023-08-12T05:14:56;101510.81;;;24.36;86.36
62791;BME280;48830;53.426;10.300;2023-08-12T05:17:21;101512.56;;;24.35;86.70
62791;BME280;48830;53.426;10.300;2023-08-12T05:19:47;101503.75;;;24.38;86.05
62791;BME280;48830;53.426;10.300;2023-08-12T05:22:12;101513.38;;;24.38;86.53
62791;BME280;48830;53.426;10.300;2023-08-12T05:24:38;101529.19;;;24.36;86.07
62791;BME280;48830;53.426;10.300;2023-08-12T05:27:04;101530.88;;;24.39;86.33
62791;BME280;48830;53.426;10.300;2023-08-12T05:29:30;101527.41;;;24.38;85.87
62791;BME280;48830;53.426;10.300;2023-08-12T05:31:56;101528.25;;;24.39;85.75
62791;BME280;48830;53.426;10.300;2023-08-12T05:34:21;101525.72;;;24.35;86.35
62791;BME280;48830;53.426;10.300;2023-08-12T05:36:47;101533.53;;;24.37;86.10
62791;BME280;48830;53.426;10.300;2023-08-12T05:39:12;101542.34;;;24.36;86.35
62791;BME280;48830;53.426;10.300;2023-08-12T05:41:38;101534.41;;;24.38;86.06
62791;BME280;48830;53.426;10.300;2023-08-12T05:44:04;101532.75;;;24.35;86.51
62791;BME280;48830;53.426;10.300;2023-08-12T05:46:29;101541.34;;;24.40;85.72
62791;BME280;48830;53.426;10.300;2023-08-12T05:48:55;101543.13;;;24.40;86.09
62791;BME280;48830;53.426;10.300;2023-08-12T05:51:20;101548.38;;;24.40;85.97
62791;BME280;48830;53.426;10.300;2023-08-12T05:53:46;101543.19;;;24.37;86.04
62791;BME280;48830;53.426;10.300;2023-08-12T05:56:11;101545.75;;;24.40;86.05
62791;BME280;48830;53.426;10.300;2023-08-12T05:58:37;101555.28;;;24.42;86.12
62791;BME280;48830;53.426;10.300;2023-08-12T06:01:02;101563.16;;;24.44;85.66
62791;BME280;48830;53.426;10.300;2023-08-12T06:03:27;101577.22;;;24.41;86.30
62791;BME280;48830;53.426;10.300;2023-08-12T06:05:53;101571.88;;;24.44;85.66
62791;BME280;48830;53.426;10.300;2023-08-12T06:08:18;101562.31;;;24.42;85.78
62791;BME280;48830;53.426;10.300;2023-08-12T06:10:44;101564.09;;;24.41;85.89
62791;BME280;48830;53.426;10.300;2023-08-12T06:13:09;101563.16;;;24.42;85.77
62791;BME280;48830;53.426;10.300;2023-08-12T06:15:35;101563.16;;;24.44;85.82
62791;BME280;48830;53.426;10.300;2023-08-12T06:18:02;101558.78;;;24.43;86.10
62791;BME280;48830;53.426;10.300;2023-08-12T06:20:27;101563.16;;;24.44;86.01
62791;BME280;48830;53.426;10.300;2023-08-12T06:22:53;101550.00;;;24.44;86.05
62791;BME280;48830;53.426;10.300;2023-08-12T06:25:19;101543.00;;;24.43;86.32
62791;BME280;48830;53.426;10.300;2023-08-12T06:27:45;101543.91;;;24.43;86.03
62791;BME280;48830;53.426;10.300;2023-08-12T06:30:11;101539.53;;;24.42;86.11
62791;BME280;48830;53.426;10.300;2023-08-12T06:32:37;101533.47;;;24.40;86.04
62791;BME280;48830;53.426;10.300;2023-08-12T06:35:03;101538.72;;;24.40;86.36
62791;BME280;48830;53.426;10.300;2023-08-12T06:37:29;101534.25;;;24.44;85.92
62791;BME280;48830;53.426;10.300;2023-08-12T06:39:54;101535.13;;;24.43;85.71
62791;BME280;48830;53.426;10.300;2023-08-12T06:42:21;101532.50;;;24.43;85.84
62791;BME280;48830;53.426;10.300;2023-08-12T06:44:54;101521.97;;;24.43;85.77
62791;BME280;48830;53.426;10.300;2023-08-12T06:47:20;101529.88;;;24.43;86.34
62791;BME280;48830;53.426;10.300;2023-08-12T06:49:45;101523.72;;;24.44;85.98
62791;BME280;48830;53.426;10.300;2023-08-12T06:52:11;101523.72;;;24.44;85.60
62791;BME280;48830;53.426;10.300;2023-08-12T06:54:37;101525.50;;;24.43;86.38
62791;BME280;48830;53.426;10.300;2023-08-12T06:57:03;101522.81;;;24.45;85.59
62791;BME280;48830;53.426;10.300;2023-08-12T06:59:28;101525.44;;;24.45;86.24
62791;BME280;48830;53.426;10.300;2023-08-12T07:01:54;101520.19;;;24.45;85.88
62791;BME280;48830;53.426;10.300;2023-08-12T07:04:19;101520.19;;;24.45;85.64
62791;BME280;48830;53.426;10.300;2023-08-12T07:06:45;101513.03;;;24.48;85.93
62791;BME280;48830;53.426;10.300;2023-08-12T07:09:10;101508.69;;;24.47;85.95
62791;BME280;48830;53.426;10.300;2023-08-12T07:11:35;101507.84;;;24.47;85.65
62791;BME280;48830;53.426;10.300;2023-08-12T07:14:01;101502.59;;;24.47;85.70
62791;BME280;48830;53.426;10.300;2023-08-12T07:16:26;101508.69;;;24.49;85.79
62791;BME280;48830;53.426;10.300;2023-08-12T07:18:52;101505.03;;;24.53;85.38
62791;BME280;48830;53.426;10.300;2023-08-12T07:21:17;101506.91;;;24.49;86.23
62791;BME280;48830;53.426;10.300;2023-08-12T07:23:43;101511.09;;;24.55;86.86
62791;BME280;48830;53.426;10.300;2023-08-12T07:26:08;101505.06;;;24.51;86.02
62791;BME280;48830;53.426;10.300;2023-08-12T07:28:34;101504.94;;;24.56;86.70
62791;BME280;48830;53.426;10.300;2023-08-12T07:31:02;101509.41;;;24.54;86.03
62791;BME280;48830;53.426;10.300;2023-08-12T07:33:28;101508.56;;;24.52;86.70
62791;BME280;48830;53.426;10.300;2023-08-12T07:35:53;101497.13;;;24.53;87.38
62791;BME280;48830;53.426;10.300;2023-08-12T07:38:19;101492.78;;;24.52;87.35
62791;BME280;48830;53.426;10.300;2023-08-12T07:40:44;101492.00;;;24.50;87.13
62791;BME280;48830;53.426;10.300;2023-08-12T07:43:10;101493.72;;;24.51;86.94
62791;BME280;48830;53.426;10.300;2023-08-12T07:45:35;101493.63;;;24.54;86.71
62791;BME280;48830;53.426;10.300;2023-08-12T07:48:01;101497.97;;;24.55;86.83
62791;BME280;48830;53.426;10.300;2023-08-12T07:50:26;101495.41;;;24.52;86.96
62791;BME280;48830;53.426;10.300;2023-08-12T07:52:52;101489.38;;;24.50;86.80
62791;BME280;48830;53.426;10.300;2023-08-12T07:55:18;101484.06;;;24.51;86.85
62791;BME280;48830;53.426;10.300;2023-08-12T07:57:44;101490.16;;;24.52;87.19
62791;BME280;48830;53.426;10.300;2023-08-12T08:00:10;101494.56;;;24.51;86.92
62791;BME280;48830;53.426;10.300;2023-08-12T08:02:38;101491.94;;;24.51;86.85
62791;BME280;48830;53.426;10.300;2023-08-12T08:05:04;101493.63;;;24.54;86.52
62791;BME280;48830;53.426;10.300;2023-08-12T08:07:29;101490.94;;;24.55;87.12
62791;BME280;48830;53.426;10.300;2023-08-12T08:09:55;101491.88;;;24.53;86.91
62791;BME280;48830;53.426;10.300;2023-08-12T08:12:21;101494.50;;;24.53;86.60
62791;BME280;48830;53.426;10.300;2023-08-12T08:14:46;101501.41;;;24.57;86.71
62791;BME280;48830;53.426;10.300;2023-08-12T08:17:12;101496.19;;;24.55;86.74
62791;BME280;48830;53.426;10.300;2023-08-12T08:19:37;101497.06;;;24.56;86.68
62791;BME280;48830;53.426;10.300;2023-08-12T08:22:03;101489.03;;;24.60;86.07
62791;BME280;48830;53.426;10.300;2023-08-12T08:24:29;101479.25;;;24.64;85.36
62791;BME280;48830;53.426;10.300;2023-08-12T08:26:54;101477.66;;;24.60;85.73
62791;BME280;48830;53.426;10.300;2023-08-12T08:29:21;101480.16;;;24.63;85.17
62791;BME280;48830;53.426;10.300;2023-08-12T08:31:46;101473.81;;;24.70;85.87
62791;BME280;48830;53.426;10.300;2023-08-12T08:34:12;101479.59;;;24.80;86.34
62791;BME280;48830;53.426;10.300;2023-08-12T08:36:37;101485.63;;;24.83;85.33
62791;BME280;48830;53.426;10.300;2023-08-12T08:39:03;101488.88;;;24.92;85.43
62791;BME280;48830;53.426;10.300;2023-08-12T08:41:31;101486.06;;;24.98;86.35
62791;BME280;48830;53.426;10.300;2023-08-12T08:44:01;101483.13;;;25.07;85.02
62791;BME280;48830;53.426;10.300;2023-08-12T08:46:29;101481.31;;;25.09;84.81
62791;BME280;48830;53.426;10.300;2023-08-12T08:48:55;101491.72;;;25.12;84.77
62791;BME280;48830;53.426;10.300;2023-08-12T08:51:22;101487.28;;;25.14;84.93
62791;BME280;48830;53.426;10.300;2023-08-12T08:53:50;101483.53;;;25.21;84.56
62791;BME280;48830;53.426;10.300;2023-08-12T08:56:18;101479.97;;;25.22;84.24
62791;BME280;48830;53.426;10.300;2023-08-12T08:58:44;101478.97;;;25.26;84.56
62791;BME280;48830;53.426;10.300;2023-08-12T09:01:10;101475.41;;;25.27;84.00
62791;BME280;48830;53.426;10.300;2023-08-12T09:03:38;101473.59;;;25.29;83.84
62791;BME280;48830;53.426;10.300;2023-08-12T09:06:04;101477.03;;;25.31;84.11
62791;BME280;48830;53.426;10.300;2023-08-12T09:08:31;101470.84;;;25.32;84.30
62791;BME280;48830;53.426;10.300;2023-08-12T09:10:59;101471.63;;;25.34;83.89
62791;BME280;48830;53.426;10.300;2023-08-12T09:13:25;101462.00;;;25.35;83.37
62791;BME280;48830;53.426;10.300;2023-08-12T09:15:50;101453.13;;;25.37;83.81
62791;BME280;48830;53.426;10.300;2023-08-12T09:18:16;101460.91;;;25.41;83.07
62791;BME280;48830;53.426;10.300;2023-08-12T09:20:42;101452.91;;;25.44;83.29
62791;BME280;48830;53.426;10.300;2023-08-12T09:23:09;101455.66;;;25.41;83.45
62791;BME280;48830;53.426;10.300;2023-08-12T09:25:41;101459.31;;;25.36;83.59
62791;BME280;48830;53.426;10.300;2023-08-12T09:28:09;101460.91;;;25.41;83.13
62791;BME280;48830;53.426;10.300;2023-08-12T09:30:34;101459.31;;;25.36;83.74
62791;BME280;48830;53.426;10.300;2023-08-12T09:33:01;101457.59;;;25.35;83.60
62791;BME280;48830;53.426;10.300;2023-08-12T09:35:36;101453.19;;;25.36;83.56
62791;BME280;48830;53.426;10.300;2023-08-12T09:38:07;101461.94;;;25.36;83.46
62791;BME280;48830;53.426;10.300;2023-08-12T09:40:34;101472.41;;;25.38;83.46
62791;BME280;48830;53.426;10.300;2023-08-12T09:43:00;101471.75;;;25.31;84.02
62791;BME280;48830;53.426;10.300;2023-08-12T09:45:26;101458.00;;;25.23;83.94
62791;BME280;48830;53.426;10.300;2023-08-12T09:47:55;101459.13;;;25.16;84.55
62791;BME280;48830;53.426;10.300;2023-08-12T09:50:22;101454.78;;;25.15;84.56
62791;BME280;48830;53.426;10.300;2023-08-12T09:52:48;101454.78;;;25.15;84.61
62791;BME280;48830;53.426;10.300;2023-08-12T09:55:16;101449.63;;;25.12;85.06
62791;BME280;48830;53.426;10.300;2023-08-12T09:57:43;101446.91;;;25.15;84.35
62791;BME280;48830;53.426;10.300;2023-08-12T10:00:12;101444.44;;;25.10;84.58
62791;BME280;48830;53.426;10.300;2023-08-12T10:02:46;101436.63;;;25.07;84.78
62791;BME280;48830;53.426;10.300;2023-08-12T10:05:16;101440.28;;;25.02;85.35
62791;BME280;48830;53.426;10.300;2023-08-12T10:07:45;101447.31;;;25.03;85.03
62791;BME280;48830;53.426;10.300;2023-08-12T10:10:11;101430.69;;;25.01;85.10
62791;BME280;48830;53.426;10.300;2023-08-12T10:12:38;101430.50;;;25.07;85.24
62791;BME280;48830;53.426;10.300;2023-08-12T10:15:05;101431.34;;;25.09;85.12
62791;BME280;48830;53.426;10.300;2023-08-12T10:17:33;101430.41;;;25.10;84.36
62791;BME280;48830;53.426;10.300;2023-08-12T10:20:03;101428.78;;;25.06;84.97
62791;BME280;48830;53.426;10.300;2023-08-12T10:22:30;101432.88;;;25.15;84.60
62791;BME280;48830;53.426;10.300;2023-08-12T10:25:01;101435.59;;;25.13;84.88
62791;BME280;48830;53.426;10.300;2023-08-12T10:27:27;101433.03;;;25.10;85.16
62791;BME280;48830;53.426;10.300;2023-08-12T10:29:56;101433.84;;;25.12;85.02
62791;BME280;48830;53.426;10.300;2023-08-12T10:32:24;101432.13;;;25.11;84.80
62791;BME280;48830;53.426;10.300;2023-08-12T10:34:57;101441.03;;;25.07;85.47
62791;BME280;48830;53.426;10.300;2023-08-12T10:37:24;101424.69;;;24.97;85.03
62791;BME280;48830;53.426;10.300;2023-08-12T10:39:49;101425.41;;;25.02;85.58
62791;BME280;48830;53.426;10.300;2023-08-12T10:42:42;101422.72;;;25.04;85.29
62791;BME280;48830;53.426;10.300;2023-08-12T10:45:08;101407.94;;;25.00;85.83
62791;BME280;48830;53.426;10.300;2023-08-12T10:47:39;101407.75;;;25.06;85.41
62791;BME280;48830;53.426;10.300;2023-08-12T10:50:05;101401.66;;;25.04;85.45
62791;BME280;48830;53.426;10.300;2023-08-12T10:52:34;101411.34;;;25.02;85.36
62791;BME280;48830;53.426;10.300;2023-08-12T10:55:25;101398.06;;;25.08;85.38
62791;BME280;48830;53.426;10.300;2023-08-12T10:57:53;101396.91;;;25.15;84.63
62791;BME280;48830;53.426;10.300;2023-08-12T11:00:23;101391.59;;;25.17;84.19
62791;BME280;48830;53.426;10.300;2023-08-12T11:02:50;101388.03;;;25.18;84.22
62791;BME280;48830;53.426;10.300;2023-08-12T11:05:17;101388.31;;;25.10;84.38
62791;BME280;48830;53.426;10.300;2023-08-12T11:10:12;101400.47;;;25.14;85.21
62791;BME280;48830;53.426;10.300;2023-08-12T11:12:39;101389.38;;;25.04;84.72
62791;BME280;48830;53.426;10.300;2023-08-12T11:15:06;101392.78;;;25.08;84.52
62791;BME280;48830;53.426;10.300;2023-08-12T11:17:41;101393.69;;;25.07;85.01
62791;BME280;48830;53.426;10.300;2023-08-12T11:20:11;101394.59;;;25.06;84.64
62791;BME280;48830;53.426;10.300;2023-08-12T11:22:42;101394.59;;;25.06;84.61
62791;BME280;48830;53.426;10.300;2023-08-12T11:25:10;101392.91;;;25.03;84.76
62791;BME280;48830;53.426;10.300;2023-08-12T11:27:42;101399.88;;;25.04;85.01
62791;BME280;48830;53.426;10.300;2023-08-12T11:30:09;101380.53;;;25.07;84.71
62791;BME280;48830;53.426;10.300;2023-08-12T11:32:37;101383.16;;;25.07;85.01
62791;BME280;48830;53.426;10.300;2023-08-12T11:35:03;101379.69;;;25.05;85.06
62791;BME280;48830;53.426;10.300;2023-08-12T11:37:31;101381.53;;;25.03;85.27
62791;BME280;48830;53.426;10.300;2023-08-12T11:39:56;101378.00;;;25.04;85.05
62791;BME280;48830;53.426;10.300;2023-08-12T11:42:22;101362.09;;;25.07;84.81
62791;BME280;48830;53.426;10.300;2023-08-12T11:44:48;101368.31;;;25.04;85.04
62791;BME280;48830;53.426;10.300;2023-08-12T11:47:13;101368.41;;;25.01;84.73
62791;BME280;48830;53.426;10.300;2023-08-12T11:49:39;101369.28;;;25.02;85.09
62791;BME280;48830;53.426;10.300;2023-08-12T11:52:04;101358.66;;;25.05;84.96
62791;BME280;48830;53.426;10.300;2023-08-12T11:54:31;101365.69;;;25.04;85.29
62791;BME280;48830;53.426;10.300;2023-08-12T11:56:57;101369.19;;;25.05;84.86
62791;BME280;48830;53.426;10.300;2023-08-12T11:59:23;101367.69;;;24.98;85.20
62791;BME280;48830;53.426;10.300;2023-08-12T12:01:49;101362.28;;;25.01;85.32
62791;BME280;48830;53.426;10.300;2023-08-12T12:04:15;101361.38;;;25.02;85.53
62791;BME280;48830;53.426;10.300;2023-08-12T12:06:41;101364.13;;;24.99;84.82
62791;BME280;48830;53.426;10.300;2023-08-12T12:09:07;101356.25;;;24.99;85.33
62791;BME280;48830;53.426;10.300;2023-08-12T12:11:37;101356.19;;;25.00;85.49
62791;BME280;48830;53.426;10.300;2023-08-12T12:14:03;101350.16;;;24.97;85.04
62791;BME280;48830;53.426;10.300;2023-08-12T12:16:40;101351.06;;;24.97;85.30
62791;BME280;48830;53.426;10.300;2023-08-12T12:19:14;101336.91;;;25.00;85.04
62791;BME280;48830;53.426;10.300;2023-08-12T12:21:41;101339.47;;;25.01;84.91
62791;BME280;48830;53.426;10.300;2023-08-12T12:24:10;101329.03;;;25.00;85.19
62791;BME280;48830;53.426;10.300;2023-08-12T12:26:36;101323.84;;;24.97;84.95
62791;BME280;48830;53.426;10.300;2023-08-12T12:29:05;101312.09;;;25.08;84.87
62791;BME280;48830;53.426;10.300;2023-08-12T12:31:35;101294.56;;;25.07;85.28
62791;BME280;48830;53.426;10.300;2023-08-12T12:34:04;101297.03;;;25.12;84.93
62791;BME280;48830;53.426;10.300;2023-08-12T12:36:31;101300.72;;;25.08;84.98
62791;BME280;48830;53.426;10.300;2023-08-12T12:38:56;101310.25;;;25.10;84.64
62791;BME280;48830;53.426;10.300;2023-08-12T12:41:22;101291.59;;;25.17;84.83